Time;durP1;ratioP1;P1;durP2;ratioP2;P2;SDS_P1;SDS_P2;PMS_P1;PMS_P2;Temp;Humidity;BMP_temperature;BMP_pressure;BME280_temperature;BME280_humidity;BME280_pressure;Samples;Min_cycle;Max_cycle;Signal;HPM_P1;HPM_P2
2022/01/22 00:01:50;;;;;;;;;;;20.20;37.90;;;;;;6336702;27;21268;-43
2022/01/22 00:04:52;;;;;;;;;;;19.90;37.90;;;;;;6319074;27;20766;-44
2022/01/22 00:07:54;;;;;;;;;;;19.90;37.80;;;;;;6331606;27;19927;-44
2022/01/22 00:10:56;;;;;;;;;;;20.20;37.90;;;;;;6324333;27;19927;-44
2022/01/22 00:17:13;;;;;;;;;;;20.20;38.00;;;;;;6336474;27;19931;-45
2022/01/22 00:20:15;;;;;;;;;;;20.30;38.00;;;;;;6340257;27;20657;-46
2022/01/22 00:23:20;;;;;;;;;;;19.80;37.70;;;;;;6339644;27;19959;-48
2022/01/22 00:26:21;;;;;;;;;;;20.10;38.00;;;;;;6342710;27;20050;-44
2022/01/22 00:29:22;;;;;;;;;;;19.80;37.80;;;;;;6345977;27;20835;-46
2022/01/22 00:32:24;;;;;;;;;;;19.80;37.60;;;;;;6345031;27;19932;-45
2022/01/22 00:35:25;;;;;;;;;;;19.90;37.70;;;;;;6338211;27;19934;-48
2022/01/22 00:38:27;;;;;;;;;;;20.10;37.90;;;;;;6338479;27;20783;-45
2022/01/22 00:41:29;;;;;;;;;;;20.20;37.90;;;;;;6345738;27;20042;-45
2022/01/22 00:44:30;;;;;;;;;;;20.30;38.20;;;;;;6344427;27;19927;-42
2022/01/22 00:47:31;;;;;;;;;;;19.60;37.60;;;;;;6341105;27;20044;-42
2022/01/22 00:50:33;;;;;;;;;;;20.10;38.00;;;;;;6343528;27;20051;-45
2022/01/22 00:53:35;;;;;;;;;;;20.10;38.00;;;;;;6340101;27;19980;-45
2022/01/22 00:56:37;;;;;;;;;;;19.70;37.70;;;;;;6326169;27;19966;-45
2022/01/22 00:59:38;;;;;;;;;;;20.60;38.10;;;;;;6332007;27;19931;-45
2022/01/22 01:02:40;;;;;;;;;;;20.20;37.90;;;;;;6340067;27;20018;-48
2022/01/22 01:05:42;;;;;;;;;;;19.90;37.90;;;;;;6340526;27;19944;-45
2022/01/22 01:08:44;;;;;;;;;;;19.70;37.70;;;;;;6345201;27;20781;-45
2022/01/22 01:11:50;;;;;;;;;;;20.50;38.20;;;;;;6344196;27;20708;-46
2022/01/22 01:15:07;;;;;;;;;;;20.10;37.80;;;;;;6309483;27;19931;-44
2022/01/22 01:34:25;;;;;;;;;;;20.00;38.20;;;;;;6341935;27;20663;-45
2022/01/22 01:37:26;;;;;;;;;;;19.70;37.80;;;;;;6339220;27;20026;-46
2022/01/22 01:40:30;;;;;;;;;;;19.80;38.00;;;;;;6341149;27;19927;-45
2022/01/22 01:43:36;;;;;;;;;;;20.30;38.10;;;;;;6351389;27;19927;-45
2022/01/22 01:47:02;;;;;;;;;;;19.60;38.00;;;;;;6349901;27;19927;-45
2022/01/22 01:50:08;;;;;;;;;;;19.90;38.00;;;;;;6345989;27;20727;-48
2022/01/22 01:53:16;;;;;;;;;;;20.00;38.10;;;;;;6347266;27;19934;-44
2022/01/22 01:59:35;;;;;;;;;;;19.60;38.00;;;;;;6346101;27;19931;-45
2022/01/22 02:02:37;;;;;;;;;;;19.80;37.90;;;;;;6341438;27;19935;-47
2022/01/22 02:05:39;;;;;;;;;;;19.60;38.00;;;;;;6342928;27;19931;-45
2022/01/22 02:08:41;;;;;;;;;;;19.50;37.80;;;;;;6344910;27;20922;-43
2022/01/22 02:11:58;;;;;;;;;;;19.60;37.90;;;;;;6350062;27;20433;-43
2022/01/22 02:25:25;;;;;;;;;;;19.50;38.10;;;;;;6340557;27;19926;-42
2022/01/22 02:28:26;;;;;;;;;;;19.40;38.10;;;;;;6341829;27;20026;-41
2022/01/22 02:31:34;;;;;;;;;;;19.70;38.60;;;;;;6345379;27;20465;-41
2022/01/22 02:34:42;;;;;;;;;;;19.50;38.40;;;;;;6341223;27;19974;-42
2022/01/22 02:37:50;;;;;;;;;;;19.50;38.20;;;;;;6336894;27;20120;-46
2022/01/22 02:40:51;;;;;;;;;;;19.40;38.30;;;;;;6341373;27;19931;-44
2022/01/22 02:43:54;;;;;;;;;;;19.50;38.50;;;;;;6336872;27;20173;-42
2022/01/22 02:46:56;;;;;;;;;;;19.80;38.30;;;;;;6341870;27;19955;-45
2022/01/22 02:49:58;;;;;;;;;;;19.70;37.80;;;;;;6338963;27;19935;-41
2022/01/22 02:53:01;;;;;;;;;;;19.40;38.30;;;;;;6341747;27;20268;-45
2022/01/22 02:56:03;;;;;;;;;;;19.40;38.30;;;;;;6343416;27;19944;-43
2022/01/22 02:59:05;;;;;;;;;;;19.50;38.20;;;;;;6329628;27;19928;-41
2022/01/22 03:02:08;;;;;;;;;;;19.60;38.60;;;;;;6336306;27;19969;-42
2022/01/22 03:05:09;;;;;;;;;;;19.50;38.30;;;;;;6334385;27;19931;-42
2022/01/22 03:08:13;;;;;;;;;;;19.30;38.20;;;;;;6340374;27;19948;-42
2022/01/22 03:11:19;;;;;;;;;;;19.50;38.40;;;;;;6342029;27;19927;-42
2022/01/22 03:15:01;;;;;;;;;;;19.50;38.40;;;;;;6332864;27;20433;-42
2022/01/22 03:18:01;;;;;;;;;;;19.70;38.40;;;;;;6319603;27;19927;-44
2022/01/22 03:21:11;;;;;;;;;;;19.40;38.40;;;;;;6341457;27;20220;-44
2022/01/22 03:27:31;;;;;;;;;;;19.90;38.70;;;;;;6334514;27;20366;-41
2022/01/22 03:30:32;;;;;;;;;;;19.40;38.30;;;;;;6338154;27;19931;-43
2022/01/22 03:33:34;;;;;;;;;;;19.40;38.40;;;;;;6338253;27;19931;-46
2022/01/22 03:36:35;;;;;;;;;;;19.40;38.60;;;;;;6324522;27;20203;-44
2022/01/22 03:39:40;;;;;;;;;;;19.40;38.30;;;;;;6328193;27;19938;-43
2022/01/22 03:42:42;;;;;;;;;;;19.40;38.60;;;;;;6343290;27;20439;-43
2022/01/22 03:45:44;;;;;;;;;;;19.50;38.40;;;;;;6308542;27;20339;-42
2022/01/22 03:48:46;;;;;;;;;;;19.60;38.60;;;;;;6329555;27;19932;-42
2022/01/22 03:51:47;;;;;;;;;;;19.40;38.50;;;;;;6331802;27;19927;-42
2022/01/22 03:54:49;;;;;;;;;;;19.50;38.60;;;;;;6330480;27;19980;-43
2022/01/22 03:58:10;;;;;;;;;;;19.60;38.70;;;;;;6337412;27;19954;-43
2022/01/22 04:01:43;;;;;;;;;;;19.20;38.60;;;;;;6338138;27;20022;-43
2022/01/22 04:04:47;;;;;;;;;;;19.40;38.50;;;;;;6332480;27;20473;-43
2022/01/22 04:11:14;;;;;;;;;;;19.30;38.40;;;;;;6343857;27;19934;-42
2022/01/22 04:14:20;;;;;;;;;;;19.30;38.40;;;;;;6340734;27;20504;-43
2022/01/22 04:17:36;;;;;;;;;;;19.30;38.60;;;;;;6332664;27;19978;-43
2022/01/22 04:27:11;;;;;;;;;;;19.40;38.50;;;;;;6343452;27;20099;-44
2022/01/22 04:30:13;;;;;;;;;;;19.30;38.40;;;;;;6336701;27;19985;-43
2022/01/22 04:33:14;;;;;;;;;;;19.20;38.40;;;;;;6339893;27;19927;-43
2022/01/22 04:36:16;;;;;;;;;;;19.40;38.60;;;;;;6345299;27;20809;-46
2022/01/22 04:39:19;;;;;;;;;;;19.30;38.40;;;;;;6321301;27;19974;-42
2022/01/22 04:42:21;;;;;;;;;;;19.70;38.30;;;;;;6346768;27;20373;-43
2022/01/22 04:45:30;;;;;;;;;;;19.00;38.30;;;;;;6345453;27;20192;-45
2022/01/22 04:48:43;;;;;;;;;;;19.30;38.30;;;;;;6344441;27;19927;-42
2022/01/22 04:55:08;;;;;;;;;;;19.50;38.50;;;;;;6343059;27;19927;-43
2022/01/22 04:58:10;;;;;;;;;;;18.90;38.20;;;;;;6325945;27;20175;-44
2022/01/22 05:01:13;;;;;;;;;;;19.30;38.40;;;;;;6336425;27;19927;-45
2022/01/22 05:04:28;;;;;;;;;;;19.40;38.70;;;;;;6341390;27;20578;-41
2022/01/22 05:07:48;;;;;;;;;;;19.40;38.50;;;;;;6344185;27;19927;-42
2022/01/22 05:11:09;;;;;;;;;;;19.20;38.40;;;;;;6344786;27;20422;-42
2022/01/22 05:14:14;;;;;;;;;;;19.50;38.60;;;;;;6344548;27;19931;-43
2022/01/22 05:17:18;;;;;;;;;;;19.60;38.10;;;;;;6343440;27;20127;-42
2022/01/22 05:20:26;;;;;;;;;;;19.40;38.50;;;;;;6336496;27;19967;-44
2022/01/22 05:23:29;;;;;;;;;;;19.90;38.80;;;;;;6335090;27;20367;-43
2022/01/22 05:26:56;;;;;;;;;;;19.70;38.70;;;;;;6329171;27;20240;-42
2022/01/22 05:30:07;;;;;;;;;;;19.60;38.60;;;;;;6333139;27;20221;-42
2022/01/22 05:36:54;;;;;;;;;;;19.40;38.60;;;;;;6332863;27;19927;-42
2022/01/22 05:37:01;;;;;;;;;;;19.40;38.40;;;;;;6323931;27;20462;-42
2022/01/22 05:40:04;;;;;;;;;;;19.60;38.40;;;;;;6337683;27;19935;-42
2022/01/22 05:43:06;;;;;;;;;;;19.30;38.30;;;;;;6338473;27;20051;-41
2022/01/22 05:46:08;;;;;;;;;;;19.30;38.30;;;;;;6340876;27;19966;-42
2022/01/22 05:49:09;;;;;;;;;;;19.80;38.70;;;;;;6336796;27;19971;-42
2022/01/22 05:52:13;;;;;;;;;;;19.70;37.90;;;;;;6327731;27;20385;-41
2022/01/22 06:01:46;;;;;;;;;;;19.30;38.20;;;;;;6331090;27;20420;-41
2022/01/22 06:04:52;;;;;;;;;;;19.40;38.40;;;;;;6334230;27;19974;-42
2022/01/22 06:07:56;;;;;;;;;;;19.80;38.60;;;;;;6337963;27;20017;-42
2022/01/22 06:11:06;;;;;;;;;;;19.30;38.40;;;;;;6335184;27;20218;-42
2022/01/22 06:14:09;;;;;;;;;;;19.30;38.50;;;;;;6336196;27;19931;-42
2022/01/22 06:17:17;;;;;;;;;;;19.50;38.60;;;;;;6336950;27;21292;-42
2022/01/22 06:20:23;;;;;;;;;;;19.30;38.40;;;;;;6325484;27;20097;-43
2022/01/22 06:23:26;;;;;;;;;;;19.20;38.40;;;;;;6334063;27;19934;-43
2022/01/22 06:26:27;;;;;;;;;;;19.70;38.30;;;;;;6339079;27;19927;-42
2022/01/22 06:29:28;;;;;;;;;;;19.60;38.60;;;;;;6321917;27;20148;-43
2022/01/22 06:32:30;;;;;;;;;;;19.20;38.40;;;;;;6314936;27;20576;-42
2022/01/22 06:35:32;;;;;;;;;;;19.60;38.60;;;;;;6333580;27;19935;-42
2022/01/22 06:38:33;;;;;;;;;;;19.30;38.30;;;;;;6332502;27;20453;-42
2022/01/22 06:41:48;;;;;;;;;;;19.70;38.70;;;;;;6336792;27;20050;-42
2022/01/22 06:45:09;;;;;;;;;;;19.60;38.60;;;;;;6338225;27;20047;-42
2022/01/22 06:48:30;;;;;;;;;;;19.60;38.30;;;;;;6339179;27;20324;-42
2022/01/22 06:51:51;;;;;;;;;;;19.40;38.40;;;;;;6329748;27;20252;-43
2022/01/22 06:54:53;;;;;;;;;;;19.50;38.50;;;;;;6328046;27;19931;-42
2022/01/22 06:57:54;;;;;;;;;;;19.30;37.90;;;;;;6335721;27;19991;-43
2022/01/22 07:01:02;;;;;;;;;;;19.50;38.50;;;;;;6339237;27;20184;-42
2022/01/22 07:04:19;;;;;;;;;;;19.40;38.50;;;;;;6332575;27;19975;-42
2022/01/22 07:07:40;;;;;;;;;;;19.30;38.40;;;;;;6336920;27;19963;-42
2022/01/22 07:10:41;;;;;;;;;;;19.30;38.40;;;;;;6336528;27;19953;-43
2022/01/22 07:13:43;;;;;;;;;;;19.60;38.50;;;;;;6341188;27;20397;-41
2022/01/22 07:16:44;;;;;;;;;;;19.50;38.50;;;;;;6337923;27;19931;-42
2022/01/22 07:20:00;;;;;;;;;;;19.70;38.20;;;;;;6337296;27;20601;-41
2022/01/22 07:23:12;;;;;;;;;;;19.40;38.40;;;;;;6339390;27;20037;-42
2022/01/22 07:26:23;;;;;;;;;;;19.70;38.70;;;;;;6335260;27;19954;-42
2022/01/22 07:29:31;;;;;;;;;;;19.80;38.40;;;;;;6339532;27;19927;-42
2022/01/22 07:32:36;;;;;;;;;;;19.50;38.60;;;;;;6345847;27;19934;-43
2022/01/22 07:35:38;;;;;;;;;;;19.30;38.30;;;;;;6344444;27;19935;-42
2022/01/22 07:38:43;;;;;;;;;;;19.40;38.40;;;;;;6321900;27;19938;-42
2022/01/22 07:41:47;;;;;;;;;;;19.80;38.70;;;;;;6340453;27;19927;-41
2022/01/22 07:44:58;;;;;;;;;;;19.30;38.30;;;;;;6343191;27;20058;-42
2022/01/22 07:48:01;;;;;;;;;;;19.40;38.40;;;;;;6335785;27;19935;-42
2022/01/22 07:51:23;;;;;;;;;;;19.60;38.40;;;;;;6337509;27;20465;-41
2022/01/22 07:54:25;;;;;;;;;;;19.30;38.40;;;;;;6326071;27;20273;-44
2022/01/22 07:57:29;;;;;;;;;;;19.30;38.30;;;;;;6332297;27;20479;-41
2022/01/22 08:00:40;;;;;;;;;;;19.90;38.70;;;;;;6336958;27;20421;-44
2022/01/22 08:03:41;;;;;;;;;;;19.30;38.40;;;;;;6340487;27;20371;-42
2022/01/22 08:07:00;;;;;;;;;;;19.10;38.40;;;;;;6340611;27;20349;-42
2022/01/22 08:10:18;;;;;;;;;;;19.40;38.40;;;;;;6340931;27;20592;-43
2022/01/22 08:13:25;;;;;;;;;;;19.30;38.40;;;;;;6339961;27;19927;-43
2022/01/22 08:16:27;;;;;;;;;;;19.30;38.40;;;;;;6337095;27;20568;-43
2022/01/22 08:19:29;;;;;;;;;;;19.80;38.00;;;;;;6340514;27;20425;-44
2022/01/22 08:22:32;;;;;;;;;;;19.40;37.90;;;;;;6333842;27;19935;-43
2022/01/22 08:25:53;;;;;;;;;;;19.50;38.50;;;;;;6337584;27;19931;-42
2022/01/22 08:29:18;;;;;;;;;;;19.50;38.40;;;;;;6341400;27;19945;-42
2022/01/22 08:38:55;;;;;;;;;;;19.00;38.10;;;;;;6326319;27;20684;-43
2022/01/22 08:41:58;;;;;;;;;;;19.40;38.40;;;;;;6343402;27;19977;-41
2022/01/22 08:45:01;;;;;;;;;;;19.40;38.30;;;;;;6345050;27;20743;-43
2022/01/22 08:48:02;;;;;;;;;;;19.40;38.40;;;;;;6332487;27;20116;-44
2022/01/22 08:51:10;;;;;;;;;;;19.30;38.20;;;;;;6336784;27;19973;-42
2022/01/22 08:54:22;;;;;;;;;;;19.40;38.30;;;;;;6343525;27;19934;-41
2022/01/22 08:57:24;;;;;;;;;;;19.80;38.60;;;;;;6344483;27;20304;-41
2022/01/22 09:00:39;;;;;;;;;;;19.40;38.30;;;;;;6327834;27;19928;-43
2022/01/22 09:03:44;;;;;;;;;;;19.70;38.40;;;;;;6327339;27;19931;-42
2022/01/22 09:06:58;;;;;;;;;;;19.70;38.50;;;;;;6338107;27;19933;-42
2022/01/22 09:10:14;;;;;;;;;;;19.40;38.30;;;;;;6329682;27;20046;-42
2022/01/22 09:13:28;;;;;;;;;;;19.40;38.30;;;;;;6333390;27;19978;-43
2022/01/22 09:16:40;;;;;;;;;;;19.40;38.20;;;;;;6333999;27;19954;-41
2022/01/22 09:19:46;;;;;;;;;;;19.40;38.30;;;;;;6342264;27;20227;-42
2022/01/22 09:22:50;;;;;;;;;;;19.50;38.30;;;;;;6335337;27;19958;-41
2022/01/22 09:25:52;;;;;;;;;;;20.00;38.30;;;;;;6339469;27;19928;-42
2022/01/22 09:29:00;;;;;;;;;;;19.60;38.10;;;;;;6340575;27;19927;-40
2022/01/22 09:32:04;;;;;;;;;;;19.70;38.20;;;;;;6344428;27;19927;-42
2022/01/22 09:35:25;;;;;;;;;;;20.00;38.00;;;;;;6342878;27;19938;-46
2022/01/22 09:38:46;;;;;;;;;;;19.90;38.00;;;;;;6347056;27;20863;-45
2022/01/22 09:42:08;;;;;;;;;;;19.60;37.80;;;;;;6345642;27;19927;-46
2022/01/22 09:45:23;;;;;;;;;;;19.80;37.70;;;;;;6339422;27;20580;-41
2022/01/22 09:48:39;;;;;;;;;;;19.70;37.60;;;;;;6336416;27;20206;-41
2022/01/22 09:51:53;;;;;;;;;;;20.20;37.70;;;;;;6321202;27;20147;-42
2022/01/22 09:55:13;;;;;;;;;;;19.80;37.50;;;;;;6323519;27;20370;-44
2022/01/22 09:58:30;;;;;;;;;;;20.20;37.50;;;;;;6331868;27;20395;-42
2022/01/22 10:01:48;;;;;;;;;;;19.80;37.40;;;;;;6328971;27;20310;-42
2022/01/22 10:04:55;;;;;;;;;;;20.30;37.60;;;;;;6324486;27;20397;-42
2022/01/22 10:08:24;;;;;;;;;;;19.80;37.30;;;;;;6329518;27;20912;-42
2022/01/22 10:11:45;;;;;;;;;;;20.50;37.40;;;;;;6322397;27;20661;-41
2022/01/22 10:15:05;;;;;;;;;;;20.00;37.30;;;;;;6320616;27;20244;-42
2022/01/22 10:18:07;;;;;;;;;;;20.20;37.10;;;;;;6331168;27;19931;-42
2022/01/22 10:21:09;;;;;;;;;;;20.10;37.10;;;;;;6331633;27;20250;-42
2022/01/22 10:24:26;;;;;;;;;;;20.20;37.00;;;;;;6336600;27;19988;-41
2022/01/22 10:27:31;;;;;;;;;;;20.40;37.00;;;;;;6337007;27;20498;-42
2022/01/22 10:30:36;;;;;;;;;;;20.20;37.00;;;;;;6334993;27;20825;-42
2022/01/22 10:33:41;;;;;;;;;;;20.20;36.90;;;;;;6320705;27;19942;-41
2022/01/22 10:36:59;;;;;;;;;;;20.40;37.10;;;;;;6342979;27;19992;-42
2022/01/22 10:40:19;;;;;;;;;;;20.80;37.00;;;;;;6338676;27;20147;-42
2022/01/22 10:43:28;;;;;;;;;;;20.30;36.80;;;;;;6323057;27;20022;-42
2022/01/22 10:46:43;;;;;;;;;;;20.80;37.00;;;;;;6331850;27;20661;-41
2022/01/22 10:49:44;;;;;;;;;;;20.70;36.90;;;;;;6338930;27;19927;-41
2022/01/22 10:52:46;;;;;;;;;;;20.60;36.90;;;;;;6331608;27;20018;-41
2022/01/22 10:56:02;;;;;;;;;;;20.80;36.80;;;;;;6337330;27;19931;-41
2022/01/22 10:59:05;;;;;;;;;;;20.90;36.80;;;;;;6322865;27;20060;-41
2022/01/22 11:02:08;;;;;;;;;;;20.60;36.60;;;;;;6336316;27;20441;-41
2022/01/22 11:05:10;;;;;;;;;;;20.40;36.60;;;;;;6328744;27;19931;-41
2022/01/22 11:08:12;;;;;;;;;;;20.60;36.60;;;;;;6331571;27;20294;-42
2022/01/22 11:11:14;;;;;;;;;;;21.00;36.70;;;;;;6334138;27;20639;-42
2022/01/22 11:14:15;;;;;;;;;;;21.00;36.80;;;;;;6338542;27;20053;-42
2022/01/22 11:17:18;;;;;;;;;;;20.50;36.30;;;;;;6337865;27;20195;-42
2022/01/22 11:20:20;;;;;;;;;;;20.80;36.60;;;;;;6324018;27;19958;-42
2022/01/22 11:23:21;;;;;;;;;;;20.90;36.10;;;;;;6334051;27;20023;-43
2022/01/22 11:26:23;;;;;;;;;;;21.10;36.60;;;;;;6333080;27;19982;-43
2022/01/22 11:29:25;;;;;;;;;;;21.00;36.50;;;;;;6333284;27;19986;-42
2022/01/22 11:32:30;;;;;;;;;;;20.80;36.30;;;;;;6322049;27;20416;-41
2022/01/22 11:35:36;;;;;;;;;;;20.90;36.40;;;;;;6336413;27;20050;-42
2022/01/22 11:38:40;;;;;;;;;;;21.10;36.40;;;;;;6332990;27;20280;-43
2022/01/22 11:41:50;;;;;;;;;;;21.10;36.30;;;;;;6320261;27;20217;-43
2022/01/22 11:45:02;;;;;;;;;;;21.00;36.20;;;;;;6335374;27;19967;-42
2022/01/22 11:48:18;;;;;;;;;;;20.80;36.30;;;;;;6335371;27;19928;-41
2022/01/22 11:51:22;;;;;;;;;;;20.90;36.10;;;;;;6335984;27;19994;-43
2022/01/22 11:54:24;;;;;;;;;;;20.80;36.00;;;;;;6333735;27;19971;-43
2022/01/22 11:57:27;;;;;;;;;;;20.90;36.00;;;;;;6320630;27;20211;-41
2022/01/22 12:00:31;;;;;;;;;;;21.00;36.00;;;;;;6335963;27;20055;-42
2022/01/22 12:03:33;;;;;;;;;;;20.80;35.90;;;;;;6340681;27;20174;-41
2022/01/22 12:07:08;;;;;;;;;;;21.00;36.00;;;;;;6326986;27;20313;-43
2022/01/22 12:10:20;;;;;;;;;;;21.20;35.90;;;;;;6341922;27;19935;-44
2022/01/22 12:16:55;;;;;;;;;;;21.10;35.90;;;;;;6332948;27;19959;-42
2022/01/22 12:20:16;;;;;;;;;;;21.00;35.80;;;;;;6325367;27;19966;-42
2022/01/22 12:23:18;;;;;;;;;;;21.20;35.90;;;;;;6336794;27;20083;-41
2022/01/22 12:26:34;;;;;;;;;;;21.50;35.90;;;;;;6327181;27;20037;-41
2022/01/22 12:29:38;;;;;;;;;;;21.00;35.60;;;;;;6333273;27;20475;-43
2022/01/22 12:32:42;;;;;;;;;;;21.20;35.80;;;;;;6334058;27;20444;-41
2022/01/22 12:35:45;;;;;;;;;;;21.30;35.80;;;;;;6320608;27;20248;-42
2022/01/22 12:38:57;;;;;;;;;;;21.20;35.80;;;;;;6330636;27;19935;-42
2022/01/22 12:41:59;;;;;;;;;;;21.40;35.80;;;;;;6336777;27;20454;-41
2022/01/22 12:45:03;;;;;;;;;;;21.60;35.90;;;;;;6338108;27;19931;-42
2022/01/22 12:48:04;;;;;;;;;;;21.40;35.90;;;;;;6338807;27;20046;-42
2022/01/22 12:51:07;;;;;;;;;;;21.20;35.90;;;;;;6337954;27;20592;-41
2022/01/22 12:54:08;;;;;;;;;;;21.40;35.70;;;;;;6336729;27;20311;-43
2022/01/22 12:57:30;;;;;;;;;;;21.30;35.80;;;;;;6324418;27;19932;-42
2022/01/22 13:00:32;;;;;;;;;;;21.20;35.70;;;;;;6340657;27;19963;-41
2022/01/22 13:03:35;;;;;;;;;;;21.20;35.70;;;;;;6338959;27;19927;-43
2022/01/22 13:06:38;;;;;;;;;;;21.40;35.70;;;;;;6332845;27;19978;-42
2022/01/22 13:10:05;;;;;;;;;;;21.40;35.60;;;;;;6336225;27;20336;-42
2022/01/22 13:13:07;;;;;;;;;;;21.70;35.70;;;;;;6317474;27;20144;-41
2022/01/22 13:16:10;;;;;;;;;;;21.70;35.80;;;;;;6315027;27;19937;-42
2022/01/22 13:19:11;;;;;;;;;;;21.60;35.70;;;;;;6313825;27;19938;-43
2022/01/22 13:22:12;;;;;;;;;;;21.40;35.70;;;;;;6330542;27;19985;-41
2022/01/22 13:25:14;;;;;;;;;;;21.40;35.70;;;;;;6333236;27;19931;-41
2022/01/22 13:28:16;;;;;;;;;;;21.50;35.50;;;;;;6314965;27;20504;-42
2022/01/22 13:31:18;;;;;;;;;;;21.80;35.90;;;;;;6337340;27;20291;-42
2022/01/22 13:34:30;;;;;;;;;;;21.50;35.60;;;;;;6337215;27;20073;-42
2022/01/22 13:47:45;;;;;;;;;;;21.80;35.60;;;;;;6311028;27;19982;-42
2022/01/22 13:50:47;;;;;;;;;;;21.50;35.40;;;;;;6337537;27;20592;-42
2022/01/22 13:53:48;;;;;;;;;;;21.50;35.60;;;;;;6328319;27;20273;-43
2022/01/22 13:56:52;;;;;;;;;;;21.90;35.80;;;;;;6321384;27;19970;-41
2022/01/22 13:59:56;;;;;;;;;;;21.90;35.70;;;;;;6326435;27;19953;-42
2022/01/22 14:03:07;;;;;;;;;;;21.60;35.60;;;;;;6330269;27;20310;-42
2022/01/22 14:06:09;;;;;;;;;;;21.50;35.40;;;;;;6334371;27;19935;-43
2022/01/22 14:09:11;;;;;;;;;;;22.00;35.60;;;;;;6329354;27;19994;-42
2022/01/22 14:12:15;;;;;;;;;;;21.40;35.30;;;;;;6329339;27;20764;-42
2022/01/22 14:15:31;;;;;;;;;;;21.60;35.50;;;;;;6333233;27;20046;-43
2022/01/22 14:18:39;;;;;;;;;;;22.10;35.80;;;;;;6329320;27;19938;-42
2022/01/22 14:21:54;;;;;;;;;;;21.60;35.40;;;;;;6333100;27;19937;-42
2022/01/22 14:25:08;;;;;;;;;;;22.00;35.70;;;;;;6324319;27;20287;-42
2022/01/22 14:28:09;;;;;;;;;;;22.10;35.70;;;;;;6321753;27;19967;-44
2022/01/22 14:31:26;;;;;;;;;;;21.70;35.50;;;;;;6313887;27;20288;-42
2022/01/22 14:34:33;;;;;;;;;;;21.70;35.30;;;;;;6309841;27;20166;-42
2022/01/22 14:37:34;;;;;;;;;;;21.80;35.40;;;;;;6303420;27;20012;-41
2022/01/22 14:47:11;;;;;;;;;;;21.60;35.30;;;;;;6331299;27;19931;-42
2022/01/22 14:50:13;;;;;;;;;;;22.00;35.50;;;;;;6316397;27;20707;-44
2022/01/22 14:53:14;;;;;;;;;;;21.90;35.50;;;;;;6327344;27;19930;-41
2022/01/22 14:56:19;;;;;;;;;;;21.60;35.40;;;;;;6302758;27;20096;-44
2022/01/22 14:59:20;;;;;;;;;;;21.50;35.20;;;;;;6329488;27;20235;-42
2022/01/22 15:02:22;;;;;;;;;;;21.80;35.60;;;;;;6330141;27;20344;-42
2022/01/22 15:05:27;;;;;;;;;;;21.60;35.40;;;;;;6312646;27;19963;-43
2022/01/22 15:08:28;;;;;;;;;;;21.50;35.50;;;;;;6318207;27;20389;-42
2022/01/22 15:11:29;;;;;;;;;;;22.10;35.60;;;;;;6329762;27;20053;-42
2022/01/22 15:14:31;;;;;;;;;;;21.70;35.40;;;;;;6320420;27;19927;-42
2022/01/22 15:17:53;;;;;;;;;;;21.90;35.50;;;;;;6319452;27;19931;-42
2022/01/22 15:20:55;;;;;;;;;;;22.00;35.50;;;;;;6320017;27;20264;-42
2022/01/22 15:23:56;;;;;;;;;;;22.10;35.60;;;;;;6318855;27;20556;-42
2022/01/22 15:26:58;;;;;;;;;;;21.60;35.40;;;;;;6326110;27;19931;-42
2022/01/22 15:30:10;;;;;;;;;;;22.00;35.70;;;;;;6323623;27;19960;-42
2022/01/22 15:33:19;;;;;;;;;;;21.70;35.20;;;;;;6315968;27;20031;-42
2022/01/22 15:36:21;;;;;;;;;;;21.50;35.30;;;;;;6335955;27;20709;-42
2022/01/22 15:39:22;;;;;;;;;;;21.50;35.20;;;;;;6335896;27;20031;-41
2022/01/22 15:42:24;;;;;;;;;;;21.60;35.20;;;;;;6334753;27;20919;-42
2022/01/22 15:45:26;;;;;;;;;;;21.70;35.40;;;;;;6332719;27;20392;-43
2022/01/22 15:48:29;;;;;;;;;;;22.00;35.50;;;;;;6330980;27;19939;-42
2022/01/22 15:51:31;;;;;;;;;;;22.20;35.50;;;;;;6335150;27;20011;-42
2022/01/22 15:54:33;;;;;;;;;;;22.10;35.60;;;;;;6328463;27;20555;-43
2022/01/22 15:57:34;;;;;;;;;;;22.00;35.60;;;;;;6338427;27;20068;-43
2022/01/22 16:00:38;;;;;;;;;;;22.10;35.50;;;;;;6325657;27;19931;-42
2022/01/22 16:03:43;;;;;;;;;;;21.60;35.30;;;;;;6333219;27;20128;-42
2022/01/22 16:06:58;;;;;;;;;;;21.90;35.40;;;;;;6333590;27;20045;-43
2022/01/22 16:10:01;;;;;;;;;;;21.80;35.40;;;;;;6322095;27;19937;-42
2022/01/22 16:13:02;;;;;;;;;;;21.80;35.30;;;;;;6317419;27;19927;-42
2022/01/22 16:16:03;;;;;;;;;;;21.70;35.40;;;;;;6326118;27;20031;-43
2022/01/22 16:19:06;;;;;;;;;;;22.10;35.50;;;;;;6336112;27;20042;-42
2022/01/22 16:22:08;;;;;;;;;;;22.10;35.40;;;;;;6324826;27;20022;-41
2022/01/22 16:25:10;;;;;;;;;;;22.10;35.60;;;;;;6321638;27;20020;-42
2022/01/22 16:28:11;;;;;;;;;;;21.70;35.50;;;;;;6325127;27;20342;-41
2022/01/22 16:31:12;;;;;;;;;;;21.70;35.30;;;;;;6334440;27;20751;-41
2022/01/22 16:34:14;;;;;;;;;;;21.60;35.40;;;;;;6330398;27;19974;-44
2022/01/22 16:37:16;;;;;;;;;;;22.00;35.50;;;;;;6316978;27;20414;-42
2022/01/22 16:40:24;;;;;;;;;;;21.70;35.30;;;;;;6327723;27;19927;-43
2022/01/22 16:43:33;;;;;;;;;;;21.70;35.30;;;;;;6332522;27;19928;-42
2022/01/22 16:46:47;;;;;;;;;;;21.70;35.30;;;;;;6321228;27;19985;-43
2022/01/22 16:56:25;;;;;;;;;;;21.90;35.50;;;;;;6313159;27;19931;-42
2022/01/22 16:59:27;;;;;;;;;;;21.90;35.50;;;;;;6330789;27;19942;-42
2022/01/22 17:02:32;;;;;;;;;;;22.10;35.60;;;;;;6326152;27;20054;-43
2022/01/22 17:05:38;;;;;;;;;;;22.10;35.50;;;;;;6325194;27;21441;-42
2022/01/22 17:08:40;;;;;;;;;;;21.90;35.50;;;;;;6312693;27;19971;-42
2022/01/22 17:14:10;;;;;;;;;;;21.90;35.50;;;;;;6330586;27;20077;-42
2022/01/22 17:15:05;;;;;;;;;;;22.10;35.60;;;;;;6304365;27;19974;-42
2022/01/22 17:18:07;;;;;;;;;;;21.80;35.40;;;;;;6318175;27;20067;-43
2022/01/22 17:21:08;;;;;;;;;;;22.30;35.80;;;;;;6328331;27;19958;-42
2022/01/22 17:24:10;;;;;;;;;;;22.00;35.60;;;;;;6327647;27;19935;-43
2022/01/22 17:27:13;;;;;;;;;;;21.60;35.40;;;;;;6316185;27;20066;-43
2022/01/22 17:30:15;;;;;;;;;;;22.00;35.70;;;;;;6325101;27;19942;-42
2022/01/22 17:33:20;;;;;;;;;;;21.60;35.50;;;;;;6327148;27;20053;-42
2022/01/22 17:36:21;;;;;;;;;;;21.60;36.10;;;;;;6333932;27;19931;-42
2022/01/22 17:39:24;;;;;;;;;;;22.00;35.90;;;;;;6333650;27;19927;-43
2022/01/22 17:42:29;;;;;;;;;;;21.70;35.70;;;;;;6331610;27;20065;-41
2022/01/22 17:45:30;;;;;;;;;;;21.70;35.80;;;;;;6326841;27;19959;-42
2022/01/22 17:48:32;;;;;;;;;;;21.50;35.80;;;;;;6330837;27;20043;-44
2022/01/22 17:51:34;;;;;;;;;;;21.60;35.70;;;;;;6311095;27;20518;-42
2022/01/22 17:54:36;;;;;;;;;;;21.80;36.00;;;;;;6321096;27;19927;-42
2022/01/22 17:57:37;;;;;;;;;;;21.70;35.90;;;;;;6332137;27;20341;-43
2022/01/22 18:00:39;;;;;;;;;;;21.40;35.90;;;;;;6331223;27;20341;-41
2022/01/22 18:03:48;;;;;;;;;;;21.40;35.80;;;;;;6316743;27;19970;-44
2022/01/22 18:06:50;;;;;;;;;;;21.30;35.80;;;;;;6297652;27;19938;-42
2022/01/22 18:09:53;;;;;;;;;;;21.80;36.20;;;;;;6319782;27;19931;-41
2022/01/22 18:12:54;;;;;;;;;;;21.60;36.00;;;;;;6319770;27;20844;-44
2022/01/22 18:15:56;;;;;;;;;;;21.40;35.90;;;;;;6328996;27;20891;-42
2022/01/22 18:18:57;;;;;;;;;;;21.30;36.10;;;;;;6329027;27;20160;-44
2022/01/22 18:22:00;;;;;;;;;;;21.50;36.30;;;;;;6330513;27;19931;-43
2022/01/22 18:25:03;;;;;;;;;;;21.70;36.20;;;;;;6326272;27;20318;-42
2022/01/22 18:28:05;;;;;;;;;;;21.10;35.90;;;;;;6327939;27;19927;-42
2022/01/22 18:31:06;;;;;;;;;;;21.90;36.40;;;;;;6326059;27;20136;-41
2022/01/22 18:34:08;;;;;;;;;;;21.60;36.30;;;;;;6330102;27;19985;-43
2022/01/22 18:37:09;;;;;;;;;;;21.20;36.00;;;;;;6331440;27;19927;-44
2022/01/22 18:40:14;;;;;;;;;;;21.20;36.10;;;;;;6329755;27;20007;-42
2022/01/22 18:43:20;;;;;;;;;;;21.20;36.20;;;;;;6310469;27;19936;-42
2022/01/22 18:46:21;;;;;;;;;;;21.70;36.30;;;;;;6327068;27;20579;-43
2022/01/22 18:49:43;;;;;;;;;;;22.00;36.60;;;;;;6314187;27;19927;-42
2022/01/22 18:52:46;;;;;;;;;;;21.20;36.20;;;;;;6328223;27;19962;-43
2022/01/22 18:55:48;;;;;;;;;;;21.00;36.20;;;;;;6332404;27;20318;-43
2022/01/22 18:58:49;;;;;;;;;;;21.50;36.50;;;;;;6326947;27;20745;-41
2022/01/22 19:01:51;;;;;;;;;;;20.90;36.30;;;;;;6330756;27;20590;-42
2022/01/22 19:04:52;;;;;;;;;;;21.50;36.60;;;;;;6332991;27;20488;-41
2022/01/22 19:07:54;;;;;;;;;;;21.00;36.30;;;;;;6337383;27;20415;-41
2022/01/22 19:10:55;;;;;;;;;;;21.40;36.50;;;;;;6337036;27;19966;-44
2022/01/22 19:13:57;;;;;;;;;;;20.90;36.30;;;;;;6326490;27;19990;-41
2022/01/22 19:16:58;;;;;;;;;;;21.10;36.50;;;;;;6325385;27;20055;-44
2022/01/22 19:19:59;;;;;;;;;;;20.80;36.40;;;;;;6334105;27;19932;-44
2022/01/22 19:23:15;;;;;;;;;;;21.00;36.50;;;;;;6326905;27;20079;-41
2022/01/22 19:26:37;;;;;;;;;;;21.60;36.80;;;;;;6326130;27;20445;-41
2022/01/22 19:29:39;;;;;;;;;;;20.90;36.50;;;;;;6332831;27;20241;-41
2022/01/22 19:32:40;;;;;;;;;;;20.80;36.50;;;;;;6334122;27;20577;-41